This is the latest recevied weather packets stored in our database for station/object W2CJS. If no packets are shown the sender has not sent any weather packets the latest 10 day(s).
| Time | Temp. | Humidity | Pressure | Rain* | Wind** | Luminosity | Snow |
|---|---|---|---|---|---|---|---|
| 1777624203 | 0.56° C | 93% | 1009.3 hPa | 0 mm | - | - | - |
| 1777621803 | 1.67° C | 92% | 1009.1 hPa | 0 mm | - | - | - |
| 1777621203 | 2.22° C | 92% | 1009 hPa | 0 mm | - | - | - |
| 1777619403 | 2.78° C | 93% | 1009 hPa | 0 mm | - | - | - |
| 1777618803 | 2.78° C | 93% | 1008.9 hPa | 0 mm | - | - | - |
| 1777615803 | 3.33° C | 93% | 1008.9 hPa | 0 mm | - | - | - |
| 1777609203 | 3.33° C | 93% | 1009 hPa | 0.25 mm | - | - | - |
| 1777608624 | 3.33° C | 93% | 1009 hPa | 0.25 mm | - | - | - |
| 1777603803 | 3.33° C | 91% | 1009.5 hPa | 1.52 mm | - | - | - |
| 1777599003 | 4.44° C | 91% | 1009.1 hPa | 0.25 mm | - | - | - |
| 1777596003 | 4.44° C | 90% | 1008.8 hPa | 0.51 mm | - | - | - |
| 1777589403 | 5.56° C | 87% | 1007.8 hPa | 0 mm | - | - | - |
| 1777585203 | 6.67° C | 83% | 1007.2 hPa | 0 mm | - | - | - |
| 1777577425 | 7.78° C | 84% | 1006.1 hPa | 0 mm | - | - | - |
| 1777576824 | 7.78° C | 81% | 1005.9 hPa | 0 mm | - | - | - |
| 1777572603 | 9.44° C | 77% | 1005.7 hPa | 0 mm | - | - | - |
| 1777570804 | 10° C | 75% | 1005.4 hPa | 0 mm | - | - | - |
| 1777562403 | 8.33° C | 88% | 1005.4 hPa | 0 mm | - | - | - |
| 1777558803 | 7.78° C | 91% | 1005.1 hPa | 0 mm | - | - | - |
| 1777558204 | 7.78° C | 91% | 1005 hPa | 0 mm | - | - | - |
| 1777557604 | 7.78° C | 91% | 1004.9 hPa | 0 mm | - | - | - |
| 1777557025 | 7.78° C | 91% | 1005 hPa | 0 mm | - | - | - |
| 1777554003 | 7.78° C | 92% | 1004.9 hPa | 0 mm | - | - | - |
| 1777541403 | 8.89° C | 92% | 1002.8 hPa | 0.51 mm | - | - | - |
| 1777540804 | 8.89° C | 93% | 1002.7 hPa | 0.25 mm | - | - | - |
* Rain latest hour (hover to see other rain measurements)
** Current wind speed in m/s (hover to see current wind gust speed)